sensor_id;sensor_type;location;lat;lon;timestamp;temperature;humidity
4813;DHT22;2420;51.202;8.698;2024-01-06T00:01:16;4.60;1.00
4813;DHT22;2420;51.202;8.698;2024-01-06T00:03:42;4.70;1.00
4813;DHT22;2420;51.202;8.698;2024-01-06T00:06:07;4.80;1.00
4813;DHT22;2420;51.202;8.698;2024-01-06T00:08:33;4.80;1.00
4813;DHT22;2420;51.202;8.698;2024-01-06T00:10:58;4.70;1.00
4813;DHT22;2420;51.202;8.698;2024-01-06T00:13:28;4.50;1.00
4813;DHT22;2420;51.202;8.698;2024-01-06T00:15:53;4.60;1.00
4813;DHT22;2420;51.202;8.698;2024-01-06T00:18:19;4.50;1.00
4813;DHT22;2420;51.202;8.698;2024-01-06T00:20:44;4.40;1.00
4813;DHT22;2420;51.202;8.698;2024-01-06T00:23:10;4.20;1.00
4813;DHT22;2420;51.202;8.698;2024-01-06T00:25:35;4.20;1.00
4813;DHT22;2420;51.202;8.698;2024-01-06T00:28:01;4.20;1.00
4813;DHT22;2420;51.202;8.698;2024-01-06T00:30:26;4.30;1.00
4813;DHT22;2420;51.202;8.698;2024-01-06T00:32:52;4.30;1.00
4813;DHT22;2420;51.202;8.698;2024-01-06T00:35:17;4.20;1.00
4813;DHT22;2420;51.202;8.698;2024-01-06T00:37:43;4.00;1.00
4813;DHT22;2420;51.202;8.698;2024-01-06T00:40:09;4.10;1.00
4813;DHT22;2420;51.202;8.698;2024-01-06T00:42:35;4.10;1.00
4813;DHT22;2420;51.202;8.698;2024-01-06T00:45:00;4.00;1.00
4813;DHT22;2420;51.202;8.698;2024-01-06T00:47:26;3.80;1.00
4813;DHT22;2420;51.202;8.698;2024-01-06T00:49:51;3.80;1.00
4813;DHT22;2420;51.202;8.698;2024-01-06T00:52:17;3.90;1.00
4813;DHT22;2420;51.202;8.698;2024-01-06T00:54:42;3.80;1.00
4813;DHT22;2420;51.202;8.698;2024-01-06T00:57:08;3.80;1.00
4813;DHT22;2420;51.202;8.698;2024-01-06T00:59:33;3.60;1.00
4813;DHT22;2420;51.202;8.698;2024-01-06T01:01:59;3.70;1.00
4813;DHT22;2420;51.202;8.698;2024-01-06T01:04:25;3.60;1.00
4813;DHT22;2420;51.202;8.698;2024-01-06T01:06:50;3.40;1.00
4813;DHT22;2420;51.202;8.698;2024-01-06T01:09:16;3.60;1.00
4813;DHT22;2420;51.202;8.698;2024-01-06T01:11:42;3.70;1.00
4813;DHT22;2420;51.202;8.698;2024-01-06T01:14:07;3.60;1.00
4813;DHT22;2420;51.202;8.698;2024-01-06T01:16:33;3.60;1.00
4813;DHT22;2420;51.202;8.698;2024-01-06T01:18:58;3.80;1.00
4813;DHT22;2420;51.202;8.698;2024-01-06T01:21:24;3.90;1.00
4813;DHT22;2420;51.202;8.698;2024-01-06T01:23:50;3.90;1.00
4813;DHT22;2420;51.202;8.698;2024-01-06T01:26:15;3.80;1.00
4813;DHT22;2420;51.202;8.698;2024-01-06T01:28:41;4.10;1.00
4813;DHT22;2420;51.202;8.698;2024-01-06T01:31:06;4.00;1.00
4813;DHT22;2420;51.202;8.698;2024-01-06T01:33:32;3.90;1.00
4813;DHT22;2420;51.202;8.698;2024-01-06T01:35:57;3.90;1.00
4813;DHT22;2420;51.202;8.698;2024-01-06T01:38:23;4.10;1.00
4813;DHT22;2420;51.202;8.698;2024-01-06T01:40:48;4.00;1.00
4813;DHT22;2420;51.202;8.698;2024-01-06T01:43:21;4.00;1.00
4813;DHT22;2420;51.202;8.698;2024-01-06T01:45:53;4.00;1.00
4813;DHT22;2420;51.202;8.698;2024-01-06T01:48:20;4.10;1.00
4813;DHT22;2420;51.202;8.698;2024-01-06T01:50:46;4.10;1.00
4813;DHT22;2420;51.202;8.698;2024-01-06T01:53:12;4.20;1.00
4813;DHT22;2420;51.202;8.698;2024-01-06T01:55:40;4.10;1.00
4813;DHT22;2420;51.202;8.698;2024-01-06T01:58:06;4.10;1.00
4813;DHT22;2420;51.202;8.698;2024-01-06T02:00:32;4.10;1.00
4813;DHT22;2420;51.202;8.698;2024-01-06T02:02:59;4.00;1.00
4813;DHT22;2420;51.202;8.698;2024-01-06T02:05:25;4.10;1.00
4813;DHT22;2420;51.202;8.698;2024-01-06T02:07:50;4.00;1.00
4813;DHT22;2420;51.202;8.698;2024-01-06T02:10:19;4.00;1.00
4813;DHT22;2420;51.202;8.698;2024-01-06T02:12:45;4.20;1.00
4813;DHT22;2420;51.202;8.698;2024-01-06T02:15:10;4.30;1.00
4813;DHT22;2420;51.202;8.698;2024-01-06T02:17:36;3.90;1.00
4813;DHT22;2420;51.202;8.698;2024-01-06T02:20:02;4.20;1.00
4813;DHT22;2420;51.202;8.698;2024-01-06T02:22:27;4.30;1.00
4813;DHT22;2420;51.202;8.698;2024-01-06T02:24:53;4.30;1.00
4813;DHT22;2420;51.202;8.698;2024-01-06T02:27:19;4.30;1.00
4813;DHT22;2420;51.202;8.698;2024-01-06T02:29:44;4.20;1.00
4813;DHT22;2420;51.202;8.698;2024-01-06T02:32:10;4.30;1.00
4813;DHT22;2420;51.202;8.698;2024-01-06T02:34:35;4.30;1.00
4813;DHT22;2420;51.202;8.698;2024-01-06T02:37:03;4.40;1.00
4813;DHT22;2420;51.202;8.698;2024-01-06T02:39:29;4.30;1.00
4813;DHT22;2420;51.202;8.698;2024-01-06T02:41:54;4.30;1.00
4813;DHT22;2420;51.202;8.698;2024-01-06T02:44:20;4.10;1.00
4813;DHT22;2420;51.202;8.698;2024-01-06T02:46:45;4.10;1.00
4813;DHT22;2420;51.202;8.698;2024-01-06T02:49:11;4.20;1.00
4813;DHT22;2420;51.202;8.698;2024-01-06T02:51:36;4.10;1.00
4813;DHT22;2420;51.202;8.698;2024-01-06T02:54:02;4.10;1.00
4813;DHT22;2420;51.202;8.698;2024-01-06T02:56:28;4.00;1.00
4813;DHT22;2420;51.202;8.698;2024-01-06T02:58:53;4.30;1.00
4813;DHT22;2420;51.202;8.698;2024-01-06T03:01:19;4.30;1.00
4813;DHT22;2420;51.202;8.698;2024-01-06T03:03:44;4.20;1.00
4813;DHT22;2420;51.202;8.698;2024-01-06T03:06:10;4.30;1.00
4813;DHT22;2420;51.202;8.698;2024-01-06T03:08:35;4.20;1.00
4813;DHT22;2420;51.202;8.698;2024-01-06T03:11:02;4.30;1.00
4813;DHT22;2420;51.202;8.698;2024-01-06T03:13:29;4.20;1.00
4813;DHT22;2420;51.202;8.698;2024-01-06T03:15:54;4.20;1.00
4813;DHT22;2420;51.202;8.698;2024-01-06T03:18:20;4.30;1.00
4813;DHT22;2420;51.202;8.698;2024-01-06T03:20:45;4.30;1.00
4813;DHT22;2420;51.202;8.698;2024-01-06T03:23:11;4.20;1.00
4813;DHT22;2420;51.202;8.698;2024-01-06T03:25:36;4.10;1.00
4813;DHT22;2420;51.202;8.698;2024-01-06T03:28:02;4.40;1.00
4813;DHT22;2420;51.202;8.698;2024-01-06T03:30:28;4.30;1.00
4813;DHT22;2420;51.202;8.698;2024-01-06T03:32:53;4.30;1.00
4813;DHT22;2420;51.202;8.698;2024-01-06T03:35:19;4.20;1.00
4813;DHT22;2420;51.202;8.698;2024-01-06T03:37:45;4.30;1.00
4813;DHT22;2420;51.202;8.698;2024-01-06T03:40:11;4.60;1.00
4813;DHT22;2420;51.202;8.698;2024-01-06T03:42:36;4.30;1.00
4813;DHT22;2420;51.202;8.698;2024-01-06T03:45:03;4.60;1.00
4813;DHT22;2420;51.202;8.698;2024-01-06T03:47:29;4.60;1.00
4813;DHT22;2420;51.202;8.698;2024-01-06T03:49:54;4.40;1.00
4813;DHT22;2420;51.202;8.698;2024-01-06T03:52:20;4.50;1.00
4813;DHT22;2420;51.202;8.698;2024-01-06T03:54:45;4.30;1.00
4813;DHT22;2420;51.202;8.698;2024-01-06T03:57:11;4.50;1.00
4813;DHT22;2420;51.202;8.698;2024-01-06T03:59:36;4.50;1.00
4813;DHT22;2420;51.202;8.698;2024-01-06T04:02:02;4.40;1.00
4813;DHT22;2420;51.202;8.698;2024-01-06T04:04:27;4.60;1.00
4813;DHT22;2420;51.202;8.698;2024-01-06T04:06:53;4.40;1.00
4813;DHT22;2420;51.202;8.698;2024-01-06T04:09:19;4.60;1.00
4813;DHT22;2420;51.202;8.698;2024-01-06T04:11:44;4.40;1.00
4813;DHT22;2420;51.202;8.698;2024-01-06T04:14:10;4.60;1.00
4813;DHT22;2420;51.202;8.698;2024-01-06T04:16:35;4.50;1.00
4813;DHT22;2420;51.202;8.698;2024-01-06T04:19:01;4.70;1.00
4813;DHT22;2420;51.202;8.698;2024-01-06T04:21:26;4.60;1.00
4813;DHT22;2420;51.202;8.698;2024-01-06T04:23:52;4.50;1.00
4813;DHT22;2420;51.202;8.698;2024-01-06T04:26:17;4.70;1.00
4813;DHT22;2420;51.202;8.698;2024-01-06T04:28:43;4.50;1.00
4813;DHT22;2420;51.202;8.698;2024-01-06T04:31:08;4.50;1.00
4813;DHT22;2420;51.202;8.698;2024-01-06T04:33:34;4.50;1.00
4813;DHT22;2420;51.202;8.698;2024-01-06T04:36:01;4.50;1.00
4813;DHT22;2420;51.202;8.698;2024-01-06T04:38:27;4.50;1.00
4813;DHT22;2420;51.202;8.698;2024-01-06T04:40:52;4.60;1.00
4813;DHT22;2420;51.202;8.698;2024-01-06T04:43:18;4.50;1.00
4813;DHT22;2420;51.202;8.698;2024-01-06T04:45:44;4.60;1.00
4813;DHT22;2420;51.202;8.698;2024-01-06T04:48:09;4.60;1.00
4813;DHT22;2420;51.202;8.698;2024-01-06T04:50:35;4.60;1.00
4813;DHT22;2420;51.202;8.698;2024-01-06T04:53:00;4.50;1.00
4813;DHT22;2420;51.202;8.698;2024-01-06T04:55:26;4.40;1.00
4813;DHT22;2420;51.202;8.698;2024-01-06T04:57:51;4.60;1.00
4813;DHT22;2420;51.202;8.698;2024-01-06T05:00:17;4.60;1.00
4813;DHT22;2420;51.202;8.698;2024-01-06T05:02:43;4.70;1.00
4813;DHT22;2420;51.202;8.698;2024-01-06T05:05:08;4.70;1.00
4813;DHT22;2420;51.202;8.698;2024-01-06T05:07:34;4.80;1.00
4813;DHT22;2420;51.202;8.698;2024-01-06T05:10:00;4.90;1.00
4813;DHT22;2420;51.202;8.698;2024-01-06T05:12:25;4.80;1.00
4813;DHT22;2420;51.202;8.698;2024-01-06T05:14:51;4.80;1.00
4813;DHT22;2420;51.202;8.698;2024-01-06T05:17:16;4.70;1.00
4813;DHT22;2420;51.202;8.698;2024-01-06T05:19:42;4.50;1.00
4813;DHT22;2420;51.202;8.698;2024-01-06T05:22:07;4.50;1.00
4813;DHT22;2420;51.202;8.698;2024-01-06T05:24:33;4.60;1.00
4813;DHT22;2420;51.202;8.698;2024-01-06T05:26:59;4.60;1.00
4813;DHT22;2420;51.202;8.698;2024-01-06T05:29:24;4.60;1.00
4813;DHT22;2420;51.202;8.698;2024-01-06T05:31:51;4.60;1.00
4813;DHT22;2420;51.202;8.698;2024-01-06T05:34:17;4.50;1.00
4813;DHT22;2420;51.202;8.698;2024-01-06T05:36:42;4.60;1.00
4813;DHT22;2420;51.202;8.698;2024-01-06T05:39:08;4.60;1.00
4813;DHT22;2420;51.202;8.698;2024-01-06T05:41:40;4.50;1.00
4813;DHT22;2420;51.202;8.698;2024-01-06T05:44:06;4.60;1.00
4813;DHT22;2420;51.202;8.698;2024-01-06T05:46:34;4.50;1.00
4813;DHT22;2420;51.202;8.698;2024-01-06T05:48:59;4.60;1.00
4813;DHT22;2420;51.202;8.698;2024-01-06T05:51:25;4.60;1.00
4813;DHT22;2420;51.202;8.698;2024-01-06T05:53:51;4.50;1.00
4813;DHT22;2420;51.202;8.698;2024-01-06T05:56:26;4.40;1.00
4813;DHT22;2420;51.202;8.698;2024-01-06T05:58:55;4.50;1.00
4813;DHT22;2420;51.202;8.698;2024-01-06T06:01:20;4.50;1.00
4813;DHT22;2420;51.202;8.698;2024-01-06T06:03:47;4.50;1.00
4813;DHT22;2420;51.202;8.698;2024-01-06T06:06:13;4.50;1.00
4813;DHT22;2420;51.202;8.698;2024-01-06T06:08:40;4.60;1.00
4813;DHT22;2420;51.202;8.698;2024-01-06T06:11:06;4.60;1.00
4813;DHT22;2420;51.202;8.698;2024-01-06T06:13:40;4.40;1.00
4813;DHT22;2420;51.202;8.698;2024-01-06T06:16:06;4.60;1.00
4813;DHT22;2420;51.202;8.698;2024-01-06T06:18:32;4.40;1.00
4813;DHT22;2420;51.202;8.698;2024-01-06T06:20:59;4.40;1.00
4813;DHT22;2420;51.202;8.698;2024-01-06T06:23:26;4.60;1.00
4813;DHT22;2420;51.202;8.698;2024-01-06T06:25:52;4.80;1.00
4813;DHT22;2420;51.202;8.698;2024-01-06T06:28:17;4.50;1.00
4813;DHT22;2420;51.202;8.698;2024-01-06T06:30:43;4.60;1.00
4813;DHT22;2420;51.202;8.698;2024-01-06T06:33:08;4.50;1.00
4813;DHT22;2420;51.202;8.698;2024-01-06T06:35:34;4.60;1.00
4813;DHT22;2420;51.202;8.698;2024-01-06T06:37:59;4.70;1.00
4813;DHT22;2420;51.202;8.698;2024-01-06T06:40:25;4.50;1.00
4813;DHT22;2420;51.202;8.698;2024-01-06T06:42:50;4.30;1.00
4813;DHT22;2420;51.202;8.698;2024-01-06T06:45:16;4.60;1.00
4813;DHT22;2420;51.202;8.698;2024-01-06T06:47:42;4.30;1.00
4813;DHT22;2420;51.202;8.698;2024-01-06T06:50:07;4.40;1.00
4813;DHT22;2420;51.202;8.698;2024-01-06T06:52:33;4.30;1.00
4813;DHT22;2420;51.202;8.698;2024-01-06T06:54:58;4.40;1.00
4813;DHT22;2420;51.202;8.698;2024-01-06T06:57:24;4.60;1.00
4813;DHT22;2420;51.202;8.698;2024-01-06T06:59:49;4.50;1.00
4813;DHT22;2420;51.202;8.698;2024-01-06T07:02:15;4.50;1.00
4813;DHT22;2420;51.202;8.698;2024-01-06T07:04:41;4.40;1.00
4813;DHT22;2420;51.202;8.698;2024-01-06T07:07:06;4.30;1.00
4813;DHT22;2420;51.202;8.698;2024-01-06T07:09:32;4.20;1.00
4813;DHT22;2420;51.202;8.698;2024-01-06T07:11:57;4.40;1.00
4813;DHT22;2420;51.202;8.698;2024-01-06T07:14:23;4.50;1.00
4813;DHT22;2420;51.202;8.698;2024-01-06T07:16:48;4.40;1.00
4813;DHT22;2420;51.202;8.698;2024-01-06T07:19:14;4.50;1.00
4813;DHT22;2420;51.202;8.698;2024-01-06T07:21:40;4.60;1.00
4813;DHT22;2420;51.202;8.698;2024-01-06T07:24:06;4.60;1.00
4813;DHT22;2420;51.202;8.698;2024-01-06T07:26:31;4.50;1.00
4813;DHT22;2420;51.202;8.698;2024-01-06T07:28:57;4.70;1.00
4813;DHT22;2420;51.202;8.698;2024-01-06T07:31:23;4.80;1.00
4813;DHT22;2420;51.202;8.698;2024-01-06T07:33:48;4.60;1.00
4813;DHT22;2420;51.202;8.698;2024-01-06T07:36:14;4.70;1.00
4813;DHT22;2420;51.202;8.698;2024-01-06T07:38:39;4.50;1.00
4813;DHT22;2420;51.202;8.698;2024-01-06T07:41:06;4.60;1.00
4813;DHT22;2420;51.202;8.698;2024-01-06T07:43:32;4.50;1.00
4813;DHT22;2420;51.202;8.698;2024-01-06T07:45:58;4.60;1.00
4813;DHT22;2420;51.202;8.698;2024-01-06T07:48:23;4.70;1.00
4813;DHT22;2420;51.202;8.698;2024-01-06T07:50:50;4.70;1.00
4813;DHT22;2420;51.202;8.698;2024-01-06T07:53:15;4.60;1.00
4813;DHT22;2420;51.202;8.698;2024-01-06T07:55:41;4.40;1.00
4813;DHT22;2420;51.202;8.698;2024-01-06T07:58:06;4.60;1.00
4813;DHT22;2420;51.202;8.698;2024-01-06T08:00:32;4.60;1.00
4813;DHT22;2420;51.202;8.698;2024-01-06T08:02:57;4.40;1.00
4813;DHT22;2420;51.202;8.698;2024-01-06T08:05:23;4.50;1.00
4813;DHT22;2420;51.202;8.698;2024-01-06T08:07:51;4.50;1.00
4813;DHT22;2420;51.202;8.698;2024-01-06T08:10:16;4.50;1.00
4813;DHT22;2420;51.202;8.698;2024-01-06T08:12:42;4.30;1.00
4813;DHT22;2420;51.202;8.698;2024-01-06T08:15:08;4.50;1.00
4813;DHT22;2420;51.202;8.698;2024-01-06T08:17:35;4.50;1.00
4813;DHT22;2420;51.202;8.698;2024-01-06T08:20:01;4.70;1.00
4813;DHT22;2420;51.202;8.698;2024-01-06T08:22:26;4.40;1.00
4813;DHT22;2420;51.202;8.698;2024-01-06T08:24:52;4.80;1.00
4813;DHT22;2420;51.202;8.698;2024-01-06T08:27:17;4.60;1.00
4813;DHT22;2420;51.202;8.698;2024-01-06T08:29:43;4.70;1.00
4813;DHT22;2420;51.202;8.698;2024-01-06T08:32:09;4.80;1.00
4813;DHT22;2420;51.202;8.698;2024-01-06T08:34:35;4.80;1.00
4813;DHT22;2420;51.202;8.698;2024-01-06T08:37:01;4.60;1.00
4813;DHT22;2420;51.202;8.698;2024-01-06T08:39:26;4.70;1.00
4813;DHT22;2420;51.202;8.698;2024-01-06T08:41:52;4.90;1.00
4813;DHT22;2420;51.202;8.698;2024-01-06T08:44:17;4.60;1.00
4813;DHT22;2420;51.202;8.698;2024-01-06T08:46:43;4.70;1.00
4813;DHT22;2420;51.202;8.698;2024-01-06T08:49:08;4.50;1.00
4813;DHT22;2420;51.202;8.698;2024-01-06T08:51:34;4.40;1.00
4813;DHT22;2420;51.202;8.698;2024-01-06T08:54:01;4.60;1.00
4813;DHT22;2420;51.202;8.698;2024-01-06T08:56:30;4.80;1.00
4813;DHT22;2420;51.202;8.698;2024-01-06T08:58:55;4.70;1.00
4813;DHT22;2420;51.202;8.698;2024-01-06T09:01:22;4.70;1.00
4813;DHT22;2420;51.202;8.698;2024-01-06T09:03:48;4.60;1.00
4813;DHT22;2420;51.202;8.698;2024-01-06T09:06:14;4.70;1.00
4813;DHT22;2420;51.202;8.698;2024-01-06T09:08:40;4.80;1.00
4813;DHT22;2420;51.202;8.698;2024-01-06T09:11:06;4.70;1.00
4813;DHT22;2420;51.202;8.698;2024-01-06T09:13:31;4.90;1.00
4813;DHT22;2420;51.202;8.698;2024-01-06T09:15:58;5.00;1.00
4813;DHT22;2420;51.202;8.698;2024-01-06T09:18:25;4.90;1.00
4813;DHT22;2420;51.202;8.698;2024-01-06T09:20:51;4.80;1.00
4813;DHT22;2420;51.202;8.698;2024-01-06T09:23:17;4.90;1.00
4813;DHT22;2420;51.202;8.698;2024-01-06T09:25:42;5.00;1.00
4813;DHT22;2420;51.202;8.698;2024-01-06T09:28:08;5.00;1.00
4813;DHT22;2420;51.202;8.698;2024-01-06T09:30:34;5.00;1.00
4813;DHT22;2420;51.202;8.698;2024-01-06T09:32:59;5.10;1.00
4813;DHT22;2420;51.202;8.698;2024-01-06T09:35:25;4.90;1.00
4813;DHT22;2420;51.202;8.698;2024-01-06T09:37:50;4.90;1.00
4813;DHT22;2420;51.202;8.698;2024-01-06T09:40:22;5.00;1.00
4813;DHT22;2420;51.202;8.698;2024-01-06T09:42:49;5.20;1.00
4813;DHT22;2420;51.202;8.698;2024-01-06T09:45:15;4.80;1.00
4813;DHT22;2420;51.202;8.698;2024-01-06T09:47:41;4.80;1.00
4813;DHT22;2420;51.202;8.698;2024-01-06T09:50:08;5.00;1.00
4813;DHT22;2420;51.202;8.698;2024-01-06T09:52:40;5.10;1.00
4813;DHT22;2420;51.202;8.698;2024-01-06T09:55:10;4.80;1.00
4813;DHT22;2420;51.202;8.698;2024-01-06T09:57:36;4.90;1.00
4813;DHT22;2420;51.202;8.698;2024-01-06T10:00:02;5.00;1.00
4813;DHT22;2420;51.202;8.698;2024-01-06T10:02:29;4.90;1.00
4813;DHT22;2420;51.202;8.698;2024-01-06T10:04:57;4.80;1.00
4813;DHT22;2420;51.202;8.698;2024-01-06T10:07:25;4.90;1.00
4813;DHT22;2420;51.202;8.698;2024-01-06T10:09:51;5.00;1.00
4813;DHT22;2420;51.202;8.698;2024-01-06T10:12:23;4.90;1.00
4813;DHT22;2420;51.202;8.698;2024-01-06T10:14:49;4.90;1.00
4813;DHT22;2420;51.202;8.698;2024-01-06T10:17:15;4.80;1.00
4813;DHT22;2420;51.202;8.698;2024-01-06T10:19:41;4.70;1.00
4813;DHT22;2420;51.202;8.698;2024-01-06T10:22:10;4.90;1.00
4813;DHT22;2420;51.202;8.698;2024-01-06T10:24:37;4.70;1.00
4813;DHT22;2420;51.202;8.698;2024-01-06T10:27:03;4.70;1.00
4813;DHT22;2420;51.202;8.698;2024-01-06T10:29:29;5.00;1.00
4813;DHT22;2420;51.202;8.698;2024-01-06T10:31:54;4.80;1.00
4813;DHT22;2420;51.202;8.698;2024-01-06T10:34:21;4.90;1.00
4813;DHT22;2420;51.202;8.698;2024-01-06T10:36:46;4.80;1.00
4813;DHT22;2420;51.202;8.698;2024-01-06T10:39:13;4.80;1.00
4813;DHT22;2420;51.202;8.698;2024-01-06T10:41:41;4.90;1.00
4813;DHT22;2420;51.202;8.698;2024-01-06T10:44:08;5.00;1.00
4813;DHT22;2420;51.202;8.698;2024-01-06T10:46:34;4.80;1.00
4813;DHT22;2420;51.202;8.698;2024-01-06T10:49:02;4.80;1.00
4813;DHT22;2420;51.202;8.698;2024-01-06T10:51:28;4.60;1.00
4813;DHT22;2420;51.202;8.698;2024-01-06T10:53:55;4.70;1.00
4813;DHT22;2420;51.202;8.698;2024-01-06T10:56:23;4.80;1.00
4813;DHT22;2420;51.202;8.698;2024-01-06T10:58:50;4.80;1.00
4813;DHT22;2420;51.202;8.698;2024-01-06T11:01:21;4.80;1.00
4813;DHT22;2420;51.202;8.698;2024-01-06T11:03:48;4.80;1.00
4813;DHT22;2420;51.202;8.698;2024-01-06T11:06:13;4.90;1.00
4813;DHT22;2420;51.202;8.698;2024-01-06T11:09:13;4.80;1.00
4813;DHT22;2420;51.202;8.698;2024-01-06T11:11:39;4.90;1.00
4813;DHT22;2420;51.202;8.698;2024-01-06T11:14:26;5.00;1.00
4813;DHT22;2420;51.202;8.698;2024-01-06T11:16:52;4.80;1.00
4813;DHT22;2420;51.202;8.698;2024-01-06T11:22:20;4.80;1.00
4813;DHT22;2420;51.202;8.698;2024-01-06T11:24:51;4.90;1.00
4813;DHT22;2420;51.202;8.698;2024-01-06T11:27:18;4.90;1.00
4813;DHT22;2420;51.202;8.698;2024-01-06T11:29:47;4.80;1.00
4813;DHT22;2420;51.202;8.698;2024-01-06T11:32:17;4.90;1.00
4813;DHT22;2420;51.202;8.698;2024-01-06T11:34:48;4.90;1.00
4813;DHT22;2420;51.202;8.698;2024-01-06T11:37:14;4.90;1.00
4813;DHT22;2420;51.202;8.698;2024-01-06T11:39:43;4.70;1.00
4813;DHT22;2420;51.202;8.698;2024-01-06T11:42:10;4.80;1.00
4813;DHT22;2420;51.202;8.698;2024-01-06T11:44:40;4.60;1.00
4813;DHT22;2420;51.202;8.698;2024-01-06T11:47:08;4.70;1.00
4813;DHT22;2420;51.202;8.698;2024-01-06T11:49:37;4.70;1.00
4813;DHT22;2420;51.202;8.698;2024-01-06T11:52:02;4.90;1.00
4813;DHT22;2420;51.202;8.698;2024-01-06T11:54:28;4.60;1.00
4813;DHT22;2420;51.202;8.698;2024-01-06T11:56:54;4.80;1.00
4813;DHT22;2420;51.202;8.698;2024-01-06T11:59:21;4.90;1.00
4813;DHT22;2420;51.202;8.698;2024-01-06T12:01:47;4.80;1.00
4813;DHT22;2420;51.202;8.698;2024-01-06T12:04:15;4.80;1.00
4813;DHT22;2420;51.202;8.698;2024-01-06T12:06:41;4.70;1.00
4813;DHT22;2420;51.202;8.698;2024-01-06T12:09:10;4.70;1.00
4813;DHT22;2420;51.202;8.698;2024-01-06T12:11:36;4.90;1.00
4813;DHT22;2420;51.202;8.698;2024-01-06T12:14:05;4.80;1.00
4813;DHT22;2420;51.202;8.698;2024-01-06T12:16:31;4.70;1.00
4813;DHT22;2420;51.202;8.698;2024-01-06T12:18:59;4.70;1.00
4813;DHT22;2420;51.202;8.698;2024-01-06T12:21:27;4.70;1.00
4813;DHT22;2420;51.202;8.698;2024-01-06T12:23:53;4.70;1.00
4813;DHT22;2420;51.202;8.698;2024-01-06T12:26:19;4.70;1.00
4813;DHT22;2420;51.202;8.698;2024-01-06T12:28:45;5.10;1.00
4813;DHT22;2420;51.202;8.698;2024-01-06T12:31:11;4.90;1.00
4813;DHT22;2420;51.202;8.698;2024-01-06T12:33:41;4.80;1.00
4813;DHT22;2420;51.202;8.698;2024-01-06T12:36:07;4.80;1.00
4813;DHT22;2420;51.202;8.698;2024-01-06T12:38:42;5.00;1.00
4813;DHT22;2420;51.202;8.698;2024-01-06T12:41:07;4.70;1.00
4813;DHT22;2420;51.202;8.698;2024-01-06T12:43:33;4.60;1.00
4813;DHT22;2420;51.202;8.698;2024-01-06T12:45:58;4.80;1.00
4813;DHT22;2420;51.202;8.698;2024-01-06T12:48:24;4.80;1.00
4813;DHT22;2420;51.202;8.698;2024-01-06T12:50:50;4.80;1.00
4813;DHT22;2420;51.202;8.698;2024-01-06T12:53:15;4.90;1.00
4813;DHT22;2420;51.202;8.698;2024-01-06T12:55:43;4.80;1.00
4813;DHT22;2420;51.202;8.698;2024-01-06T12:58:09;4.70;1.00
4813;DHT22;2420;51.202;8.698;2024-01-06T13:00:34;5.00;1.00
4813;DHT22;2420;51.202;8.698;2024-01-06T13:03:00;4.70;1.00
4813;DHT22;2420;51.202;8.698;2024-01-06T13:05:25;4.50;1.00
4813;DHT22;2420;51.202;8.698;2024-01-06T13:07:51;4.50;1.00
4813;DHT22;2420;51.202;8.698;2024-01-06T13:10:17;4.50;1.00
4813;DHT22;2420;51.202;8.698;2024-01-06T13:12:42;4.90;1.00
4813;DHT22;2420;51.202;8.698;2024-01-06T13:15:08;4.70;1.00
4813;DHT22;2420;51.202;8.698;2024-01-06T13:17:37;4.80;1.00
4813;DHT22;2420;51.202;8.698;2024-01-06T13:20:03;4.90;1.00
4813;DHT22;2420;51.202;8.698;2024-01-06T13:22:29;4.80;1.00
4813;DHT22;2420;51.202;8.698;2024-01-06T13:24:56;4.70;1.00
4813;DHT22;2420;51.202;8.698;2024-01-06T13:27:21;4.70;1.00
4813;DHT22;2420;51.202;8.698;2024-01-06T13:29:47;4.60;1.00
4813;DHT22;2420;51.202;8.698;2024-01-06T13:32:13;4.70;1.00
4813;DHT22;2420;51.202;8.698;2024-01-06T13:34:39;4.50;1.00
4813;DHT22;2420;51.202;8.698;2024-01-06T13:37:04;4.80;1.00
4813;DHT22;2420;51.202;8.698;2024-01-06T13:39:32;4.70;1.00
4813;DHT22;2420;51.202;8.698;2024-01-06T13:41:57;4.90;1.00
4813;DHT22;2420;51.202;8.698;2024-01-06T13:44:23;4.50;1.00
4813;DHT22;2420;51.202;8.698;2024-01-06T13:46:49;4.60;1.00
4813;DHT22;2420;51.202;8.698;2024-01-06T13:49:16;4.80;1.00
4813;DHT22;2420;51.202;8.698;2024-01-06T13:51:42;4.70;1.00
4813;DHT22;2420;51.202;8.698;2024-01-06T13:54:08;4.90;1.00
4813;DHT22;2420;51.202;8.698;2024-01-06T13:56:35;4.70;1.00
4813;DHT22;2420;51.202;8.698;2024-01-06T13:59:00;4.80;1.00
4813;DHT22;2420;51.202;8.698;2024-01-06T14:01:26;4.60;1.00
4813;DHT22;2420;51.202;8.698;2024-01-06T14:03:52;4.70;1.00
4813;DHT22;2420;51.202;8.698;2024-01-06T14:06:24;4.60;1.00
4813;DHT22;2420;51.202;8.698;2024-01-06T14:08:51;4.60;1.00
4813;DHT22;2420;51.202;8.698;2024-01-06T14:11:18;4.70;1.00
4813;DHT22;2420;51.202;8.698;2024-01-06T14:13:44;4.60;1.00
4813;DHT22;2420;51.202;8.698;2024-01-06T14:16:18;4.70;1.00
4813;DHT22;2420;51.202;8.698;2024-01-06T14:18:44;4.90;1.00
4813;DHT22;2420;51.202;8.698;2024-01-06T14:21:10;4.80;1.00
4813;DHT22;2420;51.202;8.698;2024-01-06T14:23:36;4.60;1.00
4813;DHT22;2420;51.202;8.698;2024-01-06T14:26:02;4.70;1.00
4813;DHT22;2420;51.202;8.698;2024-01-06T14:28:28;4.70;1.00
4813;DHT22;2420;51.202;8.698;2024-01-06T14:30:55;4.40;1.00
4813;DHT22;2420;51.202;8.698;2024-01-06T14:33:21;4.60;1.00
4813;DHT22;2420;51.202;8.698;2024-01-06T14:35:47;4.50;1.00
4813;DHT22;2420;51.202;8.698;2024-01-06T14:38:12;4.50;1.00
4813;DHT22;2420;51.202;8.698;2024-01-06T14:40:38;4.50;1.00
4813;DHT22;2420;51.202;8.698;2024-01-06T14:43:04;4.40;1.00
4813;DHT22;2420;51.202;8.698;2024-01-06T14:45:30;4.30;1.00
4813;DHT22;2420;51.202;8.698;2024-01-06T14:47:56;4.60;1.00
4813;DHT22;2420;51.202;8.698;2024-01-06T14:50:22;4.50;1.00
4813;DHT22;2420;51.202;8.698;2024-01-06T14:52:47;4.50;1.00
4813;DHT22;2420;51.202;8.698;2024-01-06T14:55:14;4.40;1.00
4813;DHT22;2420;51.202;8.698;2024-01-06T14:57:40;4.30;1.00
4813;DHT22;2420;51.202;8.698;2024-01-06T15:00:07;4.20;1.00
4813;DHT22;2420;51.202;8.698;2024-01-06T15:02:39;4.30;1.00
4813;DHT22;2420;51.202;8.698;2024-01-06T15:05:05;4.40;1.00
4813;DHT22;2420;51.202;8.698;2024-01-06T15:07:31;4.30;1.00
4813;DHT22;2420;51.202;8.698;2024-01-06T15:10:00;4.30;1.00
4813;DHT22;2420;51.202;8.698;2024-01-06T15:12:27;4.30;1.00
4813;DHT22;2420;51.202;8.698;2024-01-06T15:14:53;4.00;1.00
4813;DHT22;2420;51.202;8.698;2024-01-06T15:17:19;4.10;1.00
4813;DHT22;2420;51.202;8.698;2024-01-06T15:19:45;4.30;1.00
4813;DHT22;2420;51.202;8.698;2024-01-06T15:22:11;4.30;1.00
4813;DHT22;2420;51.202;8.698;2024-01-06T15:24:37;4.00;1.00
4813;DHT22;2420;51.202;8.698;2024-01-06T15:27:03;4.00;1.00
4813;DHT22;2420;51.202;8.698;2024-01-06T15:29:29;4.20;1.00
4813;DHT22;2420;51.202;8.698;2024-01-06T15:31:54;4.20;1.00
4813;DHT22;2420;51.202;8.698;2024-01-06T15:34:23;4.10;1.00
4813;DHT22;2420;51.202;8.698;2024-01-06T15:36:50;4.20;1.00
4813;DHT22;2420;51.202;8.698;2024-01-06T15:39:15;4.10;1.00
4813;DHT22;2420;51.202;8.698;2024-01-06T15:41:41;4.20;1.00
4813;DHT22;2420;51.202;8.698;2024-01-06T15:44:07;4.10;1.00
4813;DHT22;2420;51.202;8.698;2024-01-06T15:46:32;4.10;1.00
4813;DHT22;2420;51.202;8.698;2024-01-06T15:48:58;4.10;1.00
4813;DHT22;2420;51.202;8.698;2024-01-06T15:51:24;4.20;1.00
4813;DHT22;2420;51.202;8.698;2024-01-06T15:53:50;4.00;1.00
4813;DHT22;2420;51.202;8.698;2024-01-06T15:56:15;4.10;1.00
4813;DHT22;2420;51.202;8.698;2024-01-06T15:58:41;4.00;1.00
4813;DHT22;2420;51.202;8.698;2024-01-06T16:01:06;4.00;1.00
4813;DHT22;2420;51.202;8.698;2024-01-06T16:03:32;3.90;1.00
4813;DHT22;2420;51.202;8.698;2024-01-06T16:05:58;3.80;1.00
4813;DHT22;2420;51.202;8.698;2024-01-06T16:08:24;3.80;1.00
4813;DHT22;2420;51.202;8.698;2024-01-06T16:10:50;3.80;1.00
4813;DHT22;2420;51.202;8.698;2024-01-06T16:13:15;3.60;1.00
4813;DHT22;2420;51.202;8.698;2024-01-06T16:15:41;3.60;1.00
4813;DHT22;2420;51.202;8.698;2024-01-06T16:18:07;3.50;1.00
4813;DHT22;2420;51.202;8.698;2024-01-06T16:20:33;3.70;1.00
4813;DHT22;2420;51.202;8.698;2024-01-06T16:22:59;3.70;1.00
4813;DHT22;2420;51.202;8.698;2024-01-06T16:25:25;3.60;1.00
4813;DHT22;2420;51.202;8.698;2024-01-06T16:27:50;3.70;1.00
4813;DHT22;2420;51.202;8.698;2024-01-06T16:30:16;3.70;1.00